RCTP/TPE METAR and TAF weather

Enter ICAO airport designator
Station Type Date Time Source
RCTP METAR 2019/06/19 06:44 UTC NOAA

RCTP 190644Z 24021KT 9999 FEW020 BKN200 32/27 Q1006 WS R23R NOSIG RMK A2971


Station Type Date Time Source
RCTP Decoded METAR 2019/06/19 06:44 UTC NOAA

Chiang Kai Shek, Taiwan (RCTP) 25-05N 121-13E
Jun 19, 2019 - 02:44 AM EDT / 2019.06.19 0644 UTC
Wind: from the WSW (240 degrees) at 24 MPH (21 KT):0
Visibility: greater than 7 mile(s):0
Sky conditions: mostly cloudy
Temperature: 89 F (32 C)
Heat index: 105.6 F (40.9 C):1
Dew Point: 80 F (27 C)
Relative Humidity: 74%
Pressure (altimeter): 29.71 in. Hg (1006 hPa)
ob: RCTP 190644Z 24021KT 9999 FEW020 BKN200 32/27 Q1006 WS R23R NOSIG RMK A2971
cycle: 6

Station Type Date Time Source
RCTP TAF 2019/06/19 06:03 UTC NOAA

TAF RCTP 190500Z 1906/2012 22012KT 9999 FEW020 SCT120
TEMPO 1906/1910 26022KT
TEMPO 1920/1924 24006KT
TEMPO 2008/2012 19005KT FEW015 BKN025 BKN060

Example: see airport list